createdAt,value
2023-02-14T00:00:15.207Z,87.58
2023-02-14T00:00:46.700Z,87.42
2023-02-14T00:01:18.194Z,87.39
2023-02-14T00:01:50.036Z,87.17
2023-02-14T00:02:21.485Z,87.39
2023-02-14T00:03:06.598Z,87.81
2023-02-14T00:03:38.146Z,87.67
2023-02-14T00:04:09.726Z,87.46
2023-02-14T00:04:45.405Z,87.34
2023-02-14T00:05:16.920Z,87.65
2023-02-14T00:05:49.301Z,87.29
2023-02-14T00:06:20.833Z,87.67
2023-02-14T00:06:52.292Z,87.86
2023-02-14T00:07:23.836Z,87.54
2023-02-14T00:07:55.287Z,87.81
2023-02-14T00:08:26.833Z,87.83
2023-02-14T00:08:58.200Z,87.91
2023-02-14T00:09:29.676Z,87.72
2023-02-14T00:10:01.125Z,87.75
2023-02-14T00:10:32.739Z,87.83
2023-02-14T00:11:08.681Z,88.13
2023-02-14T00:11:40.403Z,88.11
2023-02-14T00:12:11.797Z,87.82
2023-02-14T00:12:43.142Z,87.77
2023-02-14T00:13:14.496Z,87.92
2023-02-14T00:14:05.118Z,88.00
2023-02-14T00:14:54.931Z,87.90
2023-02-14T00:15:26.414Z,87.81
2023-02-14T00:15:57.932Z,87.96
2023-02-14T00:16:29.477Z,87.82
2023-02-14T00:17:01.016Z,87.90
2023-02-14T00:17:32.434Z,87.89
2023-02-14T00:18:09.136Z,87.89
2023-02-14T00:19:15.967Z,88.17
2023-02-14T00:19:47.583Z,88.00
2023-02-14T00:20:19.154Z,87.96
2023-02-14T00:20:50.486Z,87.97
2023-02-14T00:21:22.395Z,88.11
2023-02-14T00:21:53.891Z,88.04
2023-02-14T00:22:25.540Z,88.06
2023-02-14T00:22:56.962Z,88.25
2023-02-14T00:23:28.298Z,88.08
2023-02-14T00:23:59.890Z,88.20
2023-02-14T00:24:31.338Z,88.15
2023-02-14T00:25:02.698Z,88.69
2023-02-14T00:25:34.569Z,88.55
2023-02-14T00:26:05.939Z,88.37
2023-02-14T00:26:38.582Z,88.29
2023-02-14T00:27:09.985Z,88.23
2023-02-14T00:27:41.462Z,88.16
2023-02-14T00:28:12.868Z,87.84
2023-02-14T00:28:44.995Z,88.16
2023-02-14T00:29:20.627Z,88.09
2023-02-14T00:29:52.186Z,87.92
2023-02-14T00:30:23.627Z,87.94
2023-02-14T00:30:57.999Z,88.13
2023-02-14T00:31:29.674Z,88.17
2023-02-14T00:32:01.632Z,88.00
2023-02-14T00:32:33.009Z,88.02
2023-02-14T00:33:04.478Z,88.05
2023-02-14T00:33:36.376Z,88.19
2023-02-14T00:34:08.975Z,88.26
2023-02-14T00:34:41.043Z,88.52
2023-02-14T00:35:12.470Z,88.20
2023-02-14T00:35:43.849Z,88.18
2023-02-14T00:36:17.868Z,88.19
2023-02-14T00:36:49.458Z,88.30
2023-02-14T00:37:21.338Z,88.31
2023-02-14T00:37:53.126Z,88.25
2023-02-14T00:38:24.810Z,88.35
2023-02-14T00:38:56.413Z,88.19
2023-02-14T00:39:27.887Z,88.02
2023-02-14T00:39:59.318Z,88.31
2023-02-14T00:40:30.783Z,88.10
2023-02-14T00:41:02.709Z,88.13
2023-02-14T00:41:34.498Z,88.42
2023-02-14T00:42:05.943Z,88.11
2023-02-14T00:42:37.321Z,88.21
2023-02-14T00:43:08.680Z,88.40
2023-02-14T00:43:40.309Z,88.32
2023-02-14T00:44:13.021Z,88.46
2023-02-14T00:44:44.533Z,88.39
2023-02-14T00:45:18.916Z,88.62
2023-02-14T00:45:50.471Z,88.65
2023-02-14T00:46:23.302Z,88.39
2023-02-14T00:46:54.872Z,88.77
2023-02-14T00:47:26.377Z,88.48
2023-02-14T00:47:59.647Z,88.45
2023-02-14T00:48:36.556Z,88.57
2023-02-14T00:49:08.492Z,88.54
2023-02-14T00:49:39.894Z,88.36
2023-02-14T00:50:11.387Z,88.51
2023-02-14T00:50:43.240Z,88.53
2023-02-14T00:51:15.426Z,88.57
2023-02-14T00:51:46.907Z,88.45
2023-02-14T00:52:18.439Z,88.63
2023-02-14T00:52:49.837Z,88.25
2023-02-14T00:53:21.263Z,88.02
2023-02-14T00:53:53.343Z,88.26
2023-02-14T00:54:24.870Z,88.01
2023-02-14T00:54:56.542Z,87.95
2023-02-14T00:55:27.920Z,87.66
2023-02-14T00:55:59.581Z,87.80
2023-02-14T00:56:31.935Z,88.07
2023-02-14T00:57:03.451Z,88.42
2023-02-14T00:57:35.466Z,88.37
2023-02-14T00:58:06.955Z,88.44
2023-02-14T00:58:38.472Z,88.46
2023-02-14T00:59:09.937Z,88.47
2023-02-14T00:59:41.430Z,88.54
2023-02-14T01:00:13.628Z,88.55
2023-02-14T01:00:45.082Z,88.78
2023-02-14T01:01:18.085Z,88.65
2023-02-14T01:01:49.641Z,88.43
2023-02-14T01:02:21.149Z,89.00
2023-02-14T01:02:52.754Z,88.96
2023-02-14T01:03:25.581Z,88.80
2023-02-14T01:03:58.794Z,89.03
2023-02-14T01:04:30.399Z,89.12
2023-02-14T01:05:01.930Z,89.03
2023-02-14T01:05:33.597Z,89.11
2023-02-14T01:06:06.174Z,88.86
2023-02-14T01:06:37.894Z,89.00
2023-02-14T01:07:09.351Z,89.13
2023-02-14T01:07:40.918Z,89.29
2023-02-14T01:08:12.478Z,89.22
2023-02-14T01:08:44.107Z,89.31
2023-02-14T01:09:15.784Z,88.98
2023-02-14T01:09:47.186Z,89.22
2023-02-14T01:10:18.767Z,89.10
2023-02-14T01:10:50.480Z,89.09
2023-02-14T01:11:23.546Z,88.88
2023-02-14T01:11:54.995Z,89.19
2023-02-14T01:12:26.476Z,89.02
2023-02-14T01:12:58.005Z,88.92
2023-02-14T01:13:29.519Z,89.26
2023-02-14T01:14:01.293Z,88.91
2023-02-14T01:14:36.041Z,89.24
2023-02-14T01:15:07.838Z,89.14
2023-02-14T01:15:41.637Z,89.02
2023-02-14T01:16:18.262Z,88.89
2023-02-14T01:16:49.895Z,88.92
2023-02-14T01:17:21.492Z,89.29
2023-02-14T01:17:52.980Z,88.95
2023-02-14T01:18:24.383Z,89.49
2023-02-14T01:19:01.466Z,89.37
2023-02-14T01:19:35.011Z,89.60
2023-02-14T01:20:07.540Z,89.36
2023-02-14T01:20:40.106Z,89.29
2023-02-14T01:21:29.307Z,89.32
2023-02-14T01:22:04.098Z,89.38
2023-02-14T01:22:37.240Z,89.16
2023-02-14T01:23:08.717Z,89.45
2023-02-14T01:23:40.841Z,89.64
2023-02-14T01:24:12.940Z,89.57
2023-02-14T01:24:44.398Z,89.64
2023-02-14T01:25:15.866Z,89.83
2023-02-14T01:25:47.945Z,89.84
2023-02-14T01:26:21.063Z,89.94
2023-02-14T01:26:52.421Z,89.84
2023-02-14T01:27:23.772Z,89.78
2023-02-14T01:27:55.375Z,90.01
2023-02-14T01:28:26.825Z,89.86
2023-02-14T01:28:58.556Z,90.04
2023-02-14T01:29:29.981Z,90.08
2023-02-14T01:30:01.481Z,90.35
2023-02-14T01:30:32.959Z,90.19
2023-02-14T01:31:15.068Z,90.37
2023-02-14T01:31:49.059Z,90.20
2023-02-14T01:32:20.663Z,90.32
2023-02-14T01:32:52.132Z,90.50
2023-02-14T01:33:23.588Z,90.42
2023-02-14T01:33:56.062Z,90.45
2023-02-14T01:34:27.502Z,90.48
2023-02-14T01:34:59.540Z,90.53
2023-02-14T01:35:30.874Z,90.45
2023-02-14T01:36:02.318Z,90.40
2023-02-14T01:36:37.825Z,90.64
2023-02-14T01:37:09.176Z,90.63
2023-02-14T01:37:40.749Z,90.35
2023-02-14T01:38:12.189Z,90.57
2023-02-14T01:38:43.655Z,90.76
2023-02-14T01:39:15.555Z,90.78
2023-02-14T01:39:46.943Z,90.54
2023-02-14T01:40:18.481Z,90.78
2023-02-14T01:40:49.953Z,90.76
2023-02-14T01:41:22.376Z,90.70
2023-02-14T01:41:55.938Z,90.75
2023-02-14T01:42:27.390Z,90.97
2023-02-14T01:42:58.782Z,91.01
2023-02-14T01:43:30.254Z,90.94
2023-02-14T01:44:05.444Z,90.86
2023-02-14T01:44:37.132Z,90.93
2023-02-14T01:45:25.978Z,91.08
2023-02-14T01:45:57.536Z,91.03
2023-02-14T01:46:35.150Z,91.09
2023-02-14T01:47:09.615Z,91.17
2023-02-14T01:47:43.490Z,91.09
2023-02-14T01:48:15.958Z,91.24
2023-02-14T01:48:48.773Z,91.06
2023-02-14T01:49:28.479Z,91.25
2023-02-14T01:50:07.087Z,91.27
2023-02-14T01:50:43.178Z,91.23
2023-02-14T01:51:18.818Z,91.39
2023-02-14T01:51:54.122Z,91.25
2023-02-14T01:52:32.902Z,91.28
2023-02-14T01:53:09.525Z,90.95
2023-02-14T01:53:41.148Z,91.33
2023-02-14T01:54:12.814Z,91.27
2023-02-14T01:54:54.752Z,91.20
2023-02-14T01:55:32.389Z,91.18
2023-02-14T01:56:09.896Z,91.31
2023-02-14T01:56:45.725Z,91.27
2023-02-14T01:57:21.060Z,91.33
2023-02-14T01:57:58.168Z,91.31
2023-02-14T01:58:34.929Z,90.99
2023-02-14T01:59:10.555Z,91.23
2023-02-14T01:59:49.016Z,91.47
2023-02-14T02:00:40.470Z,91.09
2023-02-14T02:01:13.818Z,91.26
2023-02-14T02:01:48.523Z,91.13
2023-02-14T02:02:23.717Z,91.07
2023-02-14T02:02:57.752Z,91.32
2023-02-14T02:03:34.477Z,91.20
2023-02-14T02:04:12.587Z,91.24
2023-02-14T02:04:46.713Z,91.28
2023-02-14T02:05:23.575Z,91.34
2023-02-14T02:06:03.263Z,91.32
2023-02-14T02:06:45.830Z,91.31
2023-02-14T02:07:20.984Z,91.05
2023-02-14T02:07:57.321Z,91.35
2023-02-14T02:08:29.088Z,91.35
2023-02-14T02:09:12.080Z,91.26
2023-02-14T02:10:02.788Z,91.45
2023-02-14T02:10:34.222Z,91.44
2023-02-14T02:11:05.898Z,91.57
2023-02-14T02:11:37.903Z,91.38
2023-02-14T02:12:09.515Z,91.54
2023-02-14T02:12:41.084Z,91.84
2023-02-14T02:13:19.122Z,91.65
2023-02-14T02:13:50.679Z,91.77
2023-02-14T02:14:22.777Z,91.75
2023-02-14T02:14:55.804Z,91.94
2023-02-14T02:15:29.755Z,92.03
2023-02-14T02:16:13.373Z,92.22
2023-02-14T02:16:56.661Z,92.05
2023-02-14T02:17:46.542Z,91.96
2023-02-14T02:18:27.118Z,91.90
2023-02-14T02:19:09.082Z,91.82
2023-02-14T02:20:11.006Z,91.89
2023-02-14T02:20:58.654Z,92.13
2023-02-14T02:21:57.484Z,91.92
2023-02-14T02:22:47.316Z,92.08
2023-02-14T02:23:43.546Z,91.97
2023-02-14T02:24:27.010Z,92.18
2023-02-14T02:25:32.145Z,91.99
2023-02-14T02:26:21.737Z,92.08
2023-02-14T02:27:04.952Z,91.93
2023-02-14T02:28:03.540Z,92.07
2023-02-14T02:29:15.743Z,92.20
2023-02-14T02:30:17.572Z,92.09
2023-02-14T02:30:51.676Z,92.30
2023-02-14T02:31:53.021Z,92.41
2023-02-14T02:32:47.278Z,92.32
2023-02-14T02:33:47.789Z,92.15
2023-02-14T02:34:34.105Z,92.38
2023-02-14T02:35:32.468Z,92.28
2023-02-14T02:36:17.188Z,92.15
2023-02-14T02:37:20.700Z,92.33
2023-02-14T02:38:10.438Z,92.31
2023-02-14T02:39:00.067Z,92.55
2023-02-14T02:39:40.305Z,92.36
2023-02-14T02:40:51.181Z,92.63
2023-02-14T02:41:46.032Z,92.37
2023-02-14T02:42:44.989Z,92.52
2023-02-14T02:43:44.758Z,92.58
2023-02-14T02:44:30.009Z,92.43
2023-02-14T02:45:19.747Z,92.38
2023-02-14T02:46:19.124Z,92.43
2023-02-14T02:47:31.758Z,92.66
2023-02-14T02:48:18.691Z,92.43
2023-02-14T02:49:52.346Z,92.52
2023-02-14T02:50:50.998Z,92.53
2023-02-14T02:56:03.851Z,92.66
2023-02-14T02:56:48.579Z,92.70
2023-02-14T02:57:29.586Z,92.47
2023-02-14T02:58:01.573Z,92.83
2023-02-14T02:58:42.767Z,92.74
2023-02-14T02:59:29.002Z,92.85
2023-02-14T03:00:04.103Z,92.67
2023-02-14T03:00:35.521Z,92.79
2023-02-14T03:01:11.351Z,92.84
2023-02-14T03:01:43.090Z,92.69
2023-02-14T03:02:20.123Z,92.94
2023-02-14T03:03:13.862Z,92.79
2023-02-14T03:04:06.993Z,92.96
2023-02-14T03:04:55.512Z,92.89
2023-02-14T03:05:29.233Z,92.80
2023-02-14T03:06:01.270Z,92.69
2023-02-14T03:06:33.050Z,92.91
2023-02-14T03:07:25.476Z,93.14
2023-02-14T03:07:56.859Z,93.10
2023-02-14T03:08:28.308Z,92.89
2023-02-14T03:09:32.729Z,92.80
2023-02-14T03:10:09.546Z,93.13
2023-02-14T03:10:41.081Z,93.30
2023-02-14T03:11:13.758Z,92.98
2023-02-14T03:12:00.738Z,93.27
2023-02-14T03:12:51.502Z,93.06
2023-02-14T03:13:40.914Z,93.16
2023-02-14T03:14:25.169Z,93.40
2023-02-14T03:15:02.533Z,93.43
2023-02-14T03:15:47.066Z,93.10
2023-02-14T03:16:41.156Z,93.00
2023-02-14T03:17:29.225Z,93.04
2023-02-14T03:18:34.523Z,93.33
2023-02-14T03:19:27.164Z,93.52
2023-02-14T03:20:16.970Z,93.28
2023-02-14T03:21:03.557Z,93.25
2023-02-14T03:21:48.486Z,93.19
2023-02-14T03:22:33.818Z,93.19
2023-02-14T03:23:20.350Z,93.00
2023-02-14T03:23:59.579Z,93.17
2023-02-14T03:24:50.264Z,93.01
2023-02-14T03:25:42.937Z,93.15
2023-02-14T03:26:21.466Z,93.13
2023-02-14T03:27:01.599Z,93.35
2023-02-14T03:27:41.138Z,93.32
2023-02-14T03:28:24.178Z,93.25
2023-02-14T03:29:06.067Z,93.40
2023-02-14T03:29:58.607Z,93.27
2023-02-14T03:30:44.817Z,93.38
2023-02-14T03:31:22.718Z,93.61
2023-02-14T03:32:22.781Z,93.34
2023-02-14T03:33:11.316Z,93.47
2023-02-14T03:34:05.016Z,93.72
2023-02-14T03:35:00.103Z,93.63
2023-02-14T03:35:42.076Z,93.58
2023-02-14T03:36:19.110Z,93.48
2023-02-14T03:36:56.347Z,93.78
2023-02-14T03:37:41.664Z,93.66
2023-02-14T03:38:26.832Z,93.75
2023-02-14T03:39:08.722Z,93.62
2023-02-14T03:39:52.191Z,94.22
2023-02-14T03:40:23.544Z,94.04
2023-02-14T03:40:59.519Z,93.87
2023-02-14T03:41:38.211Z,94.06
2023-02-14T03:42:21.233Z,94.15
2023-02-14T03:42:57.639Z,94.02
2023-02-14T03:43:34.114Z,94.06
2023-02-14T03:44:11.203Z,94.13
2023-02-14T03:44:44.163Z,94.22
2023-02-14T03:45:25.051Z,94.42
2023-02-14T03:46:08.921Z,94.36
2023-02-14T03:46:45.346Z,94.34
2023-02-14T03:47:20.596Z,94.43
2023-02-14T03:47:54.964Z,94.72
2023-02-14T03:48:28.888Z,94.43
2023-02-14T03:49:06.024Z,94.72
2023-02-14T03:49:48.930Z,94.48
2023-02-14T03:50:20.564Z,94.70
2023-02-14T03:50:53.783Z,94.55
2023-02-14T03:51:27.351Z,94.67
2023-02-14T03:52:02.518Z,94.89
2023-02-14T03:52:36.019Z,94.92
2023-02-14T03:53:10.742Z,94.78
2023-02-14T03:53:47.012Z,95.13
2023-02-14T03:54:20.923Z,94.92
2023-02-14T03:54:56.648Z,94.85
2023-02-14T03:55:36.093Z,94.83
2023-02-14T03:56:16.342Z,95.06
2023-02-14T03:57:01.199Z,94.84
2023-02-14T03:57:43.054Z,94.85
2023-02-14T03:58:32.668Z,94.88
2023-02-14T03:59:12.851Z,94.89
2023-02-14T03:59:44.608Z,94.92
2023-02-14T04:00:18.342Z,94.89
2023-02-14T04:00:57.736Z,94.96
2023-02-14T04:01:45.814Z,94.96
2023-02-14T04:02:24.484Z,94.82
2023-02-14T04:03:03.148Z,95.07
2023-02-14T04:03:39.210Z,94.63
2023-02-14T04:04:13.893Z,94.83
2023-02-14T04:04:47.902Z,94.94
2023-02-14T04:05:25.987Z,94.85
2023-02-14T04:05:58.120Z,94.49
2023-02-14T04:06:29.541Z,94.85
2023-02-14T04:07:16.105Z,94.69
2023-02-14T04:07:56.591Z,94.89
2023-02-14T04:08:29.513Z,94.89
2023-02-14T04:09:01.030Z,94.89
2023-02-14T04:09:32.445Z,94.67
2023-02-14T04:10:03.905Z,94.77
2023-02-14T04:10:35.851Z,94.73
2023-02-14T04:11:07.700Z,94.96
2023-02-14T04:11:39.473Z,95.05
2023-02-14T04:12:11.700Z,94.90
2023-02-14T04:12:43.271Z,94.86
2023-02-14T04:13:14.636Z,94.88
2023-02-14T04:13:46.058Z,94.49
2023-02-14T04:14:17.824Z,94.96
2023-02-14T04:14:49.244Z,94.57
2023-02-14T04:15:20.819Z,95.05
2023-02-14T04:15:52.316Z,94.94
2023-02-14T04:16:23.861Z,94.63
2023-02-14T04:17:13.881Z,94.98
2023-02-14T04:18:03.880Z,94.69
2023-02-14T04:18:53.887Z,94.71
2023-02-14T04:19:25.459Z,94.87
2023-02-14T04:19:56.793Z,94.77
2023-02-14T04:20:28.859Z,94.62
2023-02-14T04:21:00.723Z,94.75
2023-02-14T04:21:32.339Z,94.68
2023-02-14T04:22:03.789Z,94.73
2023-02-14T04:22:35.188Z,94.75
2023-02-14T04:23:06.719Z,94.57
2023-02-14T04:23:38.500Z,94.62
2023-02-14T04:24:09.903Z,94.92
2023-02-14T04:24:42.318Z,94.91
2023-02-14T04:25:14.634Z,94.73
2023-02-14T04:25:46.319Z,94.53
2023-02-14T04:26:17.636Z,94.62
2023-02-14T04:27:09.298Z,94.77
2023-02-14T04:27:40.743Z,94.68
2023-02-14T04:28:12.961Z,94.70
2023-02-14T04:28:44.428Z,94.62
2023-02-14T04:29:15.771Z,94.57
2023-02-14T04:29:49.091Z,94.70
2023-02-14T04:30:22.733Z,94.47
2023-02-14T04:30:54.161Z,94.49
2023-02-14T04:31:25.757Z,94.54
2023-02-14T04:31:57.248Z,94.57
2023-02-14T04:32:28.808Z,94.67
2023-02-14T04:33:00.209Z,94.42
2023-02-14T04:33:31.851Z,94.47
2023-02-14T04:34:03.266Z,94.39
2023-02-14T04:34:34.982Z,94.52
2023-02-14T04:35:06.744Z,94.28
2023-02-14T04:35:38.366Z,94.10
2023-02-14T04:36:09.821Z,93.92
2023-02-14T04:36:41.336Z,94.35
2023-02-14T04:37:15.128Z,94.13
2023-02-14T04:37:46.612Z,94.17
2023-02-14T04:38:18.005Z,94.22
2023-02-14T04:38:49.492Z,93.84
2023-02-14T04:39:20.916Z,94.15
2023-02-14T04:39:52.330Z,93.89
2023-02-14T04:40:23.735Z,94.00
2023-02-14T04:40:55.300Z,93.81
2023-02-14T04:41:28.922Z,93.52
2023-02-14T04:42:00.589Z,93.54
2023-02-14T04:42:31.987Z,93.56
2023-02-14T04:43:04.648Z,93.66
2023-02-14T04:43:36.062Z,93.67
2023-02-14T04:44:07.463Z,93.40
2023-02-14T04:44:38.881Z,93.51
2023-02-14T04:45:10.310Z,93.61
2023-02-14T04:45:41.795Z,93.52
2023-02-14T04:46:13.367Z,93.57
2023-02-14T04:46:45.007Z,93.52
2023-02-14T04:47:16.432Z,93.34
2023-02-14T04:47:47.997Z,93.29
2023-02-14T04:48:19.360Z,93.31
2023-02-14T04:48:50.788Z,93.18
2023-02-14T04:49:22.434Z,93.07
2023-02-14T04:49:54.012Z,93.21
2023-02-14T04:50:26.690Z,93.45
2023-02-14T04:50:58.472Z,93.11
2023-02-14T04:51:30.196Z,93.12
2023-02-14T04:52:01.947Z,93.15
2023-02-14T04:52:33.423Z,93.35
2023-02-14T04:53:05.003Z,93.46
2023-02-14T04:53:40.401Z,93.41
2023-02-14T04:54:12.031Z,93.11
2023-02-14T04:54:43.475Z,93.10
2023-02-14T04:55:14.899Z,93.09
2023-02-14T04:55:49.219Z,93.05
2023-02-14T04:56:20.655Z,93.13
2023-02-14T04:56:52.184Z,92.97
2023-02-14T04:57:23.668Z,93.10
2023-02-14T04:57:55.240Z,93.11
2023-02-14T04:58:26.673Z,92.88
2023-02-14T04:58:58.201Z,93.10
2023-02-14T04:59:29.786Z,93.10
2023-02-14T05:00:01.556Z,92.89
2023-02-14T05:00:33.028Z,93.17
2023-02-14T05:01:04.508Z,93.09
2023-02-14T05:01:36.073Z,92.93
2023-02-14T05:02:07.612Z,93.01
2023-02-14T05:02:39.168Z,92.95
2023-02-14T05:03:13.006Z,92.98
2023-02-14T05:03:44.359Z,92.68
2023-02-14T05:04:15.836Z,92.63
2023-02-14T05:04:49.684Z,92.67
2023-02-14T05:05:21.259Z,92.88
2023-02-14T05:05:52.925Z,92.59
2023-02-14T05:06:24.342Z,92.53
2023-02-14T05:06:55.717Z,92.49
2023-02-14T05:07:27.974Z,92.63
2023-02-14T05:07:59.431Z,92.96
2023-02-14T05:08:30.822Z,92.88
2023-02-14T05:09:03.367Z,93.03
2023-02-14T05:09:34.930Z,92.35
2023-02-14T05:10:06.802Z,92.78
2023-02-14T05:10:38.197Z,92.63
2023-02-14T05:11:09.968Z,92.77
2023-02-14T05:11:41.464Z,92.87
2023-02-14T05:12:12.988Z,92.55
2023-02-14T05:12:44.517Z,92.86
2023-02-14T05:13:17.513Z,92.80
2023-02-14T05:13:49.046Z,92.36
2023-02-14T05:14:20.686Z,92.82
2023-02-14T05:14:52.033Z,92.93
2023-02-14T05:15:23.440Z,92.61
2023-02-14T05:15:55.262Z,92.61
2023-02-14T05:16:26.740Z,93.15
2023-02-14T05:16:58.113Z,93.07
2023-02-14T05:17:29.608Z,93.04
2023-02-14T05:18:02.807Z,93.07
2023-02-14T05:18:34.497Z,93.17
2023-02-14T05:19:05.888Z,93.13
2023-02-14T05:19:37.250Z,93.03
2023-02-14T05:20:09.124Z,92.97
2023-02-14T05:20:40.701Z,93.36
2023-02-14T05:21:12.379Z,93.35
2023-02-14T05:21:43.885Z,92.92
2023-02-14T05:22:18.175Z,93.03
2023-02-14T05:22:49.876Z,92.86
2023-02-14T05:23:21.884Z,93.06
2023-02-14T05:23:53.266Z,92.74
2023-02-14T05:24:24.961Z,92.86
2023-02-14T05:24:56.404Z,92.96
2023-02-14T05:25:27.758Z,93.04
2023-02-14T05:25:59.138Z,92.86
2023-02-14T05:26:31.063Z,92.84
2023-02-14T05:27:02.457Z,93.10
2023-02-14T05:27:33.875Z,93.18
2023-02-14T05:28:05.776Z,92.93
2023-02-14T05:28:37.406Z,93.36
2023-02-14T05:29:08.870Z,93.04
2023-02-14T05:29:40.266Z,93.01
2023-02-14T05:30:13.506Z,92.64
2023-02-14T05:30:45.004Z,92.94
2023-02-14T05:31:16.585Z,92.72
2023-02-14T05:31:48.418Z,92.83
2023-02-14T05:32:19.845Z,92.83
2023-02-14T05:32:51.325Z,92.94
2023-02-14T05:33:23.106Z,92.82
2023-02-14T05:33:54.537Z,92.98
2023-02-14T05:34:25.908Z,92.74
2023-02-14T05:34:57.265Z,93.04
2023-02-14T05:35:28.760Z,92.38
2023-02-14T05:36:02.941Z,92.74
2023-02-14T05:36:34.334Z,92.96
2023-02-14T05:37:05.832Z,93.10
2023-02-14T05:37:37.227Z,92.83
2023-02-14T05:38:08.806Z,93.02
2023-02-14T05:38:40.195Z,92.87
2023-02-14T05:39:14.507Z,93.01
2023-02-14T05:39:45.935Z,93.11
2023-02-14T05:40:17.424Z,92.81
2023-02-14T05:40:48.856Z,93.14
2023-02-14T05:41:20.303Z,92.68
2023-02-14T05:41:51.731Z,92.88
2023-02-14T05:42:23.062Z,92.73
2023-02-14T05:42:55.902Z,92.71
2023-02-14T05:43:27.386Z,93.21
2023-02-14T05:43:58.727Z,93.06
2023-02-14T05:44:30.098Z,92.69
2023-02-14T05:45:01.441Z,92.78
2023-02-14T05:45:32.821Z,93.03
2023-02-14T05:46:04.493Z,92.98
2023-02-14T05:46:35.914Z,92.92
2023-02-14T05:47:07.330Z,92.75
2023-02-14T05:47:39.113Z,92.94
2023-02-14T05:48:10.537Z,92.78
2023-02-14T05:48:42.031Z,92.98
2023-02-14T05:49:13.495Z,92.78
2023-02-14T05:49:44.958Z,92.62
2023-02-14T05:50:17.569Z,92.52
2023-02-14T05:50:48.986Z,92.70
2023-02-14T05:51:20.499Z,92.62
2023-02-14T05:51:53.033Z,92.68
2023-02-14T05:52:24.700Z,92.57
2023-02-14T05:52:56.399Z,92.52
2023-02-14T05:53:27.787Z,92.59
2023-02-14T05:54:01.084Z,92.78
2023-02-14T05:54:32.508Z,92.80
2023-02-14T05:55:04.844Z,92.89
2023-02-14T05:55:36.299Z,92.78
2023-02-14T05:56:08.239Z,92.83
2023-02-14T05:56:39.674Z,92.71
2023-02-14T05:57:11.025Z,92.73
2023-02-14T05:57:42.736Z,92.96
2023-02-14T05:58:14.258Z,92.60
2023-02-14T05:58:45.801Z,92.44
2023-02-14T05:59:17.182Z,92.73
2023-02-14T05:59:48.896Z,92.71
2023-02-14T06:00:21.057Z,92.90
2023-02-14T06:00:52.584Z,92.76
2023-02-14T06:01:23.955Z,92.55
2023-02-14T06:01:55.417Z,92.55
2023-02-14T06:02:27.054Z,92.66
2023-02-14T06:02:58.482Z,92.33
2023-02-14T06:03:29.853Z,92.48
2023-02-14T06:04:01.498Z,92.39
2023-02-14T06:04:33.025Z,92.40
2023-02-14T06:05:04.855Z,92.99
2023-02-14T06:05:36.325Z,92.69
2023-02-14T06:06:07.722Z,92.20
2023-02-14T06:06:39.060Z,92.62
2023-02-14T06:07:10.546Z,92.49
2023-02-14T06:07:43.531Z,92.85
2023-02-14T06:08:15.142Z,92.47
2023-02-14T06:08:46.477Z,92.49
2023-02-14T06:09:19.713Z,92.67
2023-02-14T06:09:51.228Z,92.35
2023-02-14T06:10:25.230Z,92.48
2023-02-14T06:10:56.583Z,92.61
2023-02-14T06:11:28.171Z,92.32
2023-02-14T06:11:59.582Z,92.71
2023-02-14T06:12:30.989Z,92.49
2023-02-14T06:13:02.477Z,92.55
2023-02-14T06:13:33.902Z,92.63
2023-02-14T06:14:05.505Z,92.69
2023-02-14T06:14:37.026Z,92.29
2023-02-14T06:15:08.566Z,92.73
2023-02-14T06:15:39.970Z,92.59
2023-02-14T06:16:11.428Z,93.01
2023-02-14T06:16:42.820Z,92.69
2023-02-14T06:17:14.302Z,92.60
2023-02-14T06:17:47.975Z,92.62
2023-02-14T06:18:19.325Z,92.74
2023-02-14T06:18:50.657Z,92.77
2023-02-14T06:19:22.039Z,93.00
2023-02-14T06:19:53.411Z,92.55
2023-02-14T06:20:25.316Z,93.18
2023-02-14T06:20:57.449Z,92.96
2023-02-14T06:21:29.075Z,92.93
2023-02-14T06:22:00.500Z,92.60
2023-02-14T06:22:32.037Z,92.57
2023-02-14T06:23:03.412Z,92.61
2023-02-14T06:23:34.915Z,92.72
2023-02-14T06:24:06.436Z,92.82
2023-02-14T06:24:38.021Z,92.63
2023-02-14T06:25:09.435Z,92.86
2023-02-14T06:25:40.941Z,92.93
2023-02-14T06:26:12.625Z,92.75
2023-02-14T06:26:44.090Z,92.64
2023-02-14T06:27:15.635Z,92.61
2023-02-14T06:27:49.261Z,92.50
2023-02-14T06:28:20.913Z,92.74
2023-02-14T06:28:56.802Z,92.66
2023-02-14T06:29:28.371Z,92.63
2023-02-14T06:29:59.875Z,92.50
2023-02-14T06:30:31.413Z,92.50
2023-02-14T06:31:03.298Z,92.89
2023-02-14T06:31:35.166Z,92.77
2023-02-14T06:32:06.927Z,92.71
2023-02-14T06:32:38.835Z,92.81
2023-02-14T06:33:10.171Z,93.18
2023-02-14T06:33:41.722Z,92.94
2023-02-14T06:34:14.810Z,93.16
2023-02-14T06:34:47.330Z,92.71
2023-02-14T06:35:18.960Z,92.77
2023-02-14T06:35:50.339Z,92.85
2023-02-14T06:36:22.701Z,92.84
2023-02-14T06:36:54.056Z,92.98
2023-02-14T06:37:25.527Z,92.86
2023-02-14T06:37:56.951Z,92.89
2023-02-14T06:38:28.304Z,92.80
2023-02-14T06:38:59.679Z,92.90
2023-02-14T06:39:31.105Z,92.74
2023-02-14T06:40:02.456Z,92.92
2023-02-14T06:40:33.892Z,92.96
2023-02-14T06:41:07.448Z,92.95
2023-02-14T06:41:39.055Z,93.16
2023-02-14T06:42:10.602Z,92.88
2023-02-14T06:42:42.115Z,92.55
2023-02-14T06:43:13.555Z,92.68
2023-02-14T06:43:48.724Z,92.56
2023-02-14T06:44:20.211Z,92.56
2023-02-14T06:44:51.675Z,92.64
2023-02-14T06:45:23.054Z,93.01
2023-02-14T06:45:54.664Z,92.74
2023-02-14T06:46:26.103Z,92.56
2023-02-14T06:46:57.637Z,92.91
2023-02-14T06:47:29.173Z,92.44
2023-02-14T06:48:00.521Z,92.82
2023-02-14T06:48:31.939Z,92.51
2023-02-14T06:49:03.347Z,92.68
2023-02-14T06:49:34.720Z,92.87
2023-02-14T06:50:06.914Z,92.48
2023-02-14T06:50:38.309Z,92.53
2023-02-14T06:51:09.915Z,92.92
2023-02-14T06:51:41.322Z,93.15
2023-02-14T06:52:12.661Z,92.88
2023-02-14T06:52:44.448Z,92.98
2023-02-14T06:53:15.905Z,92.93
2023-02-14T06:53:47.266Z,92.79
2023-02-14T06:54:18.780Z,92.98
2023-02-14T06:54:50.150Z,92.71
2023-02-14T06:55:21.586Z,92.79
2023-02-14T06:55:53.398Z,92.98
2023-02-14T06:56:24.845Z,93.07
2023-02-14T06:56:56.289Z,93.22
2023-02-14T06:57:27.855Z,92.70
2023-02-14T06:57:59.294Z,92.87
2023-02-14T06:58:31.272Z,92.82
2023-02-14T06:59:03.029Z,93.02
2023-02-14T06:59:34.478Z,92.72
2023-02-14T07:00:07.078Z,92.82
2023-02-14T07:00:39.676Z,93.17
2023-02-14T07:01:11.115Z,93.13
2023-02-14T07:01:42.547Z,93.41
2023-02-14T07:02:14.072Z,92.87
2023-02-14T07:02:45.764Z,93.15
2023-02-14T07:03:17.734Z,93.00
2023-02-14T07:03:49.129Z,93.30
2023-02-14T07:04:20.578Z,92.99
2023-02-14T07:04:51.977Z,92.93
2023-02-14T07:05:23.375Z,92.73
2023-02-14T07:05:55.237Z,92.78
2023-02-14T07:06:26.632Z,93.16
2023-02-14T07:06:58.926Z,93.00
2023-02-14T07:07:30.501Z,93.34
2023-02-14T07:08:02.142Z,93.39
2023-02-14T07:08:33.813Z,93.43
2023-02-14T07:09:05.618Z,93.36
2023-02-14T07:09:37.114Z,92.90
2023-02-14T07:10:08.759Z,93.63
2023-02-14T07:10:40.155Z,93.81
2023-02-14T07:11:11.559Z,93.57
2023-02-14T07:11:43.615Z,93.57
2023-02-14T07:12:15.047Z,93.46
2023-02-14T07:12:46.439Z,93.71
2023-02-14T07:13:18.049Z,93.69
2023-02-14T07:13:49.680Z,93.68
2023-02-14T07:14:21.135Z,93.74
2023-02-14T07:14:52.506Z,93.89
2023-02-14T07:15:23.918Z,94.08
2023-02-14T07:15:55.450Z,93.91
2023-02-14T07:16:26.849Z,94.25
2023-02-14T07:16:58.416Z,94.04
2023-02-14T07:17:29.800Z,93.99
2023-02-14T07:18:01.285Z,93.97
2023-02-14T07:18:32.719Z,94.23
2023-02-14T07:19:04.354Z,94.02
2023-02-14T07:19:35.798Z,93.93
2023-02-14T07:20:09.254Z,93.79
2023-02-14T07:20:40.578Z,93.95
2023-02-14T07:21:11.972Z,93.96
2023-02-14T07:21:43.296Z,93.89
2023-02-14T07:22:14.643Z,94.25
2023-02-14T07:22:46.198Z,94.14
2023-02-14T07:23:17.877Z,94.25
2023-02-14T07:23:50.133Z,93.95
2023-02-14T07:24:21.537Z,94.16
2023-02-14T07:24:53.000Z,94.10
2023-02-14T07:25:24.491Z,93.86
2023-02-14T07:25:56.303Z,94.43
2023-02-14T07:26:27.738Z,93.96
2023-02-14T07:26:59.184Z,93.91
2023-02-14T07:27:30.589Z,93.81
2023-02-14T07:28:02.209Z,93.80
2023-02-14T07:28:33.702Z,94.06
2023-02-14T07:29:05.191Z,93.94
2023-02-14T07:29:37.401Z,93.79
2023-02-14T07:30:11.006Z,93.91
2023-02-14T07:30:42.478Z,93.94
2023-02-14T07:31:14.055Z,93.94
2023-02-14T07:31:45.707Z,93.90
2023-02-14T07:32:17.324Z,94.04